sensor_id;sensor_type;location;lat;lon;timestamp;temperature;humidity
25568;DHT22;13455;51.480;7.594;2022-09-17T00:36:14;11.10;99.90
25568;DHT22;13455;51.480;7.594;2022-09-17T00:38:40;11.80;99.90
25568;DHT22;13455;51.480;7.594;2022-09-17T00:41:06;11.00;99.90
25568;DHT22;13455;51.480;7.594;2022-09-17T00:43:39;11.70;99.90
25568;DHT22;13455;51.480;7.594;2022-09-17T00:46:20;10.90;99.90
25568;DHT22;13455;51.480;7.594;2022-09-17T00:48:47;10.90;99.90
25568;DHT22;13455;51.480;7.594;2022-09-17T00:51:16;12.10;99.90
25568;DHT22;13455;51.480;7.594;2022-09-17T00:53:43;10.90;99.90
25568;DHT22;13455;51.480;7.594;2022-09-17T00:56:30;12.20;99.90
25568;DHT22;13455;51.480;7.594;2022-09-17T00:58:57;10.80;99.90
25568;DHT22;13455;51.480;7.594;2022-09-17T01:01:23;10.90;99.90
25568;DHT22;13455;51.480;7.594;2022-09-17T01:03:49;10.80;99.90
25568;DHT22;13455;51.480;7.594;2022-09-17T01:09:56;10.40;99.90
25568;DHT22;13455;51.480;7.594;2022-09-17T01:15:22;10.70;99.90
25568;DHT22;13455;51.480;7.594;2022-09-17T01:18:21;11.20;99.90
25568;DHT22;13455;51.480;7.594;2022-09-17T01:32:35;10.50;99.90
25568;DHT22;13455;51.480;7.594;2022-09-17T01:43:16;10.40;99.90
25568;DHT22;13455;51.480;7.594;2022-09-17T01:48:35;10.40;99.90
25568;DHT22;13455;51.480;7.594;2022-09-17T01:51:21;10.30;99.90
25568;DHT22;13455;51.480;7.594;2022-09-17T02:36:57;10.30;99.90
25568;DHT22;13455;51.480;7.594;2022-09-17T02:39:24;10.20;99.90
25568;DHT22;13455;51.480;7.594;2022-09-17T02:45:13;10.20;99.90
25568;DHT22;13455;51.480;7.594;2022-09-17T02:47:34;10.70;99.90
25568;DHT22;13455;51.480;7.594;2022-09-17T02:55:47;10.20;99.90
25568;DHT22;13455;51.480;7.594;2022-09-17T03:00:49;10.20;99.90
25568;DHT22;13455;51.480;7.594;2022-09-17T03:03:40;10.20;99.90
25568;DHT22;13455;51.480;7.594;2022-09-17T03:06:07;10.20;99.90
25568;DHT22;13455;51.480;7.594;2022-09-17T03:08:39;10.20;99.90
25568;DHT22;13455;51.480;7.594;2022-09-17T03:11:07;10.80;99.90
25568;DHT22;13455;51.480;7.594;2022-09-17T03:13:34;10.20;99.90
25568;DHT22;13455;51.480;7.594;2022-09-17T03:16:01;10.20;99.90
25568;DHT22;13455;51.480;7.594;2022-09-17T03:18:27;10.20;99.90
25568;DHT22;13455;51.480;7.594;2022-09-17T03:20:53;10.50;99.90
25568;DHT22;13455;51.480;7.594;2022-09-17T03:23:18;10.20;99.90
25568;DHT22;13455;51.480;7.594;2022-09-17T03:25:45;10.10;99.90
25568;DHT22;13455;51.480;7.594;2022-09-17T03:28:11;10.20;99.90
25568;DHT22;13455;51.480;7.594;2022-09-17T03:30:37;10.60;99.90
25568;DHT22;13455;51.480;7.594;2022-09-17T03:33:02;10.20;99.90
25568;DHT22;13455;51.480;7.594;2022-09-17T03:35:28;10.30;99.90
25568;DHT22;13455;51.480;7.594;2022-09-17T03:37:54;10.50;99.90
25568;DHT22;13455;51.480;7.594;2022-09-17T03:40:19;10.20;99.90
25568;DHT22;13455;51.480;7.594;2022-09-17T03:42:45;10.30;99.90
25568;DHT22;13455;51.480;7.594;2022-09-17T03:45:11;10.50;99.90
25568;DHT22;13455;51.480;7.594;2022-09-17T03:47:37;10.20;99.90
25568;DHT22;13455;51.480;7.594;2022-09-17T03:50:04;10.20;99.90
25568;DHT22;13455;51.480;7.594;2022-09-17T03:52:29;10.20;99.90
25568;DHT22;13455;51.480;7.594;2022-09-17T03:54:55;10.20;99.90
25568;DHT22;13455;51.480;7.594;2022-09-17T03:57:21;9.80;99.90
25568;DHT22;13455;51.480;7.594;2022-09-17T03:59:47;11.20;99.90
25568;DHT22;13455;51.480;7.594;2022-09-17T04:02:13;10.10;99.90
25568;DHT22;13455;51.480;7.594;2022-09-17T04:04:38;10.20;99.90
25568;DHT22;13455;51.480;7.594;2022-09-17T04:07:04;11.00;99.90
25568;DHT22;13455;51.480;7.594;2022-09-17T04:09:30;10.10;99.90
25568;DHT22;13455;51.480;7.594;2022-09-17T04:11:56;10.10;99.90
25568;DHT22;13455;51.480;7.594;2022-09-17T04:14:21;10.90;99.90
25568;DHT22;13455;51.480;7.594;2022-09-17T04:16:47;10.10;99.90
25568;DHT22;13455;51.480;7.594;2022-09-17T04:19:13;10.00;99.90
25568;DHT22;13455;51.480;7.594;2022-09-17T04:21:38;10.10;99.90
25568;DHT22;13455;51.480;7.594;2022-09-17T04:24:04;10.10;99.90
25568;DHT22;13455;51.480;7.594;2022-09-17T04:26:30;10.00;99.90
25568;DHT22;13455;51.480;7.594;2022-09-17T04:28:55;10.80;99.90
25568;DHT22;13455;51.480;7.594;2022-09-17T04:31:21;10.20;99.90
25568;DHT22;13455;51.480;7.594;2022-09-17T04:33:51;9.90;99.90
25568;DHT22;13455;51.480;7.594;2022-09-17T04:36:17;11.10;99.90
25568;DHT22;13455;51.480;7.594;2022-09-17T04:38:42;9.90;99.90
25568;DHT22;13455;51.480;7.594;2022-09-17T04:41:08;9.90;99.90
25568;DHT22;13455;51.480;7.594;2022-09-17T04:43:34;10.10;99.90
25568;DHT22;13455;51.480;7.594;2022-09-17T04:45:59;10.80;99.90
25568;DHT22;13455;51.480;7.594;2022-09-17T04:48:25;11.20;99.90
25568;DHT22;13455;51.480;7.594;2022-09-17T04:50:51;9.90;99.90
25568;DHT22;13455;51.480;7.594;2022-09-17T04:53:16;11.10;99.90
25568;DHT22;13455;51.480;7.594;2022-09-17T04:55:43;9.80;99.90
25568;DHT22;13455;51.480;7.594;2022-09-17T04:58:09;10.40;99.90
25568;DHT22;13455;51.480;7.594;2022-09-17T05:00:34;9.90;99.90
25568;DHT22;13455;51.480;7.594;2022-09-17T05:03:00;10.00;99.90
25568;DHT22;13455;51.480;7.594;2022-09-17T05:05:26;9.90;99.90
25568;DHT22;13455;51.480;7.594;2022-09-17T05:07:51;11.10;99.90
25568;DHT22;13455;51.480;7.594;2022-09-17T05:10:19;9.80;99.90
25568;DHT22;13455;51.480;7.594;2022-09-17T05:12:49;9.90;99.90
25568;DHT22;13455;51.480;7.594;2022-09-17T05:15:16;10.70;99.90
25568;DHT22;13455;51.480;7.594;2022-09-17T05:17:41;9.90;99.90
25568;DHT22;13455;51.480;7.594;2022-09-17T05:20:07;10.00;99.90
25568;DHT22;13455;51.480;7.594;2022-09-17T05:22:34;9.90;99.90
25568;DHT22;13455;51.480;7.594;2022-09-17T05:24:59;10.20;99.90
25568;DHT22;13455;51.480;7.594;2022-09-17T05:27:25;9.90;99.90
25568;DHT22;13455;51.480;7.594;2022-09-17T05:29:51;9.90;99.90
25568;DHT22;13455;51.480;7.594;2022-09-17T05:32:16;11.00;99.90
25568;DHT22;13455;51.480;7.594;2022-09-17T05:34:42;9.90;99.90
25568;DHT22;13455;51.480;7.594;2022-09-17T05:37:10;10.20;99.90
25568;DHT22;13455;51.480;7.594;2022-09-17T05:39:36;10.70;99.90
25568;DHT22;13455;51.480;7.594;2022-09-17T05:42:02;9.90;99.90
25568;DHT22;13455;51.480;7.594;2022-09-17T05:44:27;9.90;99.90
25568;DHT22;13455;51.480;7.594;2022-09-17T05:46:53;10.10;99.90
25568;DHT22;13455;51.480;7.594;2022-09-17T05:49:19;9.90;99.90
25568;DHT22;13455;51.480;7.594;2022-09-17T05:51:45;10.50;99.90
25568;DHT22;13455;51.480;7.594;2022-09-17T05:54:10;9.90;99.90
25568;DHT22;13455;51.480;7.594;2022-09-17T05:56:36;9.90;99.90
25568;DHT22;13455;51.480;7.594;2022-09-17T05:59:01;10.00;99.90
25568;DHT22;13455;51.480;7.594;2022-09-17T06:01:27;10.00;99.90
25568;DHT22;13455;51.480;7.594;2022-09-17T06:03:53;10.00;99.90
25568;DHT22;13455;51.480;7.594;2022-09-17T06:06:19;11.00;99.90
25568;DHT22;13455;51.480;7.594;2022-09-17T06:08:44;10.60;99.90
25568;DHT22;13455;51.480;7.594;2022-09-17T06:11:10;10.20;99.90
25568;DHT22;13455;51.480;7.594;2022-09-17T06:13:36;10.20;99.90
25568;DHT22;13455;51.480;7.594;2022-09-17T06:16:02;10.30;99.90
25568;DHT22;13455;51.480;7.594;2022-09-17T06:18:29;10.40;99.90
25568;DHT22;13455;51.480;7.594;2022-09-17T06:20:59;10.40;99.90
25568;DHT22;13455;51.480;7.594;2022-09-17T06:23:26;10.50;99.90
25568;DHT22;13455;51.480;7.594;2022-09-17T06:25:59;10.60;99.90
25568;DHT22;13455;51.480;7.594;2022-09-17T06:28:26;10.60;99.90
25568;DHT22;13455;51.480;7.594;2022-09-17T06:30:52;10.70;99.90
25568;DHT22;13455;51.480;7.594;2022-09-17T06:33:19;10.80;99.90
25568;DHT22;13455;51.480;7.594;2022-09-17T06:35:45;10.60;99.90
25568;DHT22;13455;51.480;7.594;2022-09-17T06:38:11;10.90;99.90
25568;DHT22;13455;51.480;7.594;2022-09-17T06:40:37;11.00;99.90
25568;DHT22;13455;51.480;7.594;2022-09-17T06:43:03;11.00;99.90
25568;DHT22;13455;51.480;7.594;2022-09-17T06:45:29;11.00;99.90
25568;DHT22;13455;51.480;7.594;2022-09-17T06:47:54;11.60;99.90
25568;DHT22;13455;51.480;7.594;2022-09-17T06:50:21;11.00;99.90
25568;DHT22;13455;51.480;7.594;2022-09-17T08:06:11;12.70;99.90
25568;DHT22;13455;51.480;7.594;2022-09-17T08:08:38;12.60;99.90
25568;DHT22;13455;51.480;7.594;2022-09-17T08:11:06;12.70;99.90
25568;DHT22;13455;51.480;7.594;2022-09-17T08:13:32;13.40;99.90
25568;DHT22;13455;51.480;7.594;2022-09-17T08:16:03;12.70;99.90
25568;DHT22;13455;51.480;7.594;2022-09-17T08:23:26;13.00;99.90
25568;DHT22;13455;51.480;7.594;2022-09-17T08:28:22;13.20;99.90
25568;DHT22;13455;51.480;7.594;2022-09-17T08:30:50;13.20;99.90
25568;DHT22;13455;51.480;7.594;2022-09-17T08:33:19;13.30;99.90
25568;DHT22;13455;51.480;7.594;2022-09-17T08:45:53;14.00;99.90
25568;DHT22;13455;51.480;7.594;2022-09-17T08:48:20;14.00;99.90
25568;DHT22;13455;51.480;7.594;2022-09-17T08:50:46;14.10;99.90
25568;DHT22;13455;51.480;7.594;2022-09-17T08:55:50;14.70;99.90
25568;DHT22;13455;51.480;7.594;2022-09-17T09:04:23;14.70;99.90
25568;DHT22;13455;51.480;7.594;2022-09-17T09:07:10;14.60;99.90
25568;DHT22;13455;51.480;7.594;2022-09-17T09:28:02;15.50;99.90
25568;DHT22;13455;51.480;7.594;2022-09-17T09:31:02;15.40;99.90
25568;DHT22;13455;51.480;7.594;2022-09-17T09:33:44;15.50;99.90
25568;DHT22;13455;51.480;7.594;2022-09-17T09:36:13;15.50;99.90
25568;DHT22;13455;51.480;7.594;2022-09-17T09:49:42;16.30;99.90
25568;DHT22;13455;51.480;7.594;2022-09-17T10:15:47;16.70;99.90
25568;DHT22;13455;51.480;7.594;2022-09-17T10:23:20;17.00;99.90
25568;DHT22;13455;51.480;7.594;2022-09-17T10:25:47;17.40;99.90
25568;DHT22;13455;51.480;7.594;2022-09-17T10:38:38;17.70;99.90
25568;DHT22;13455;51.480;7.594;2022-09-17T10:41:12;17.70;99.90
25568;DHT22;13455;51.480;7.594;2022-09-17T10:43:38;17.00;99.90
25568;DHT22;13455;51.480;7.594;2022-09-17T10:46:04;17.80;99.90
25568;DHT22;13455;51.480;7.594;2022-09-17T11:18:04;17.40;99.90
25568;DHT22;13455;51.480;7.594;2022-09-17T12:40:06;17.20;99.90
25568;DHT22;13455;51.480;7.594;2022-09-17T12:45:45;17.30;99.90
25568;DHT22;13455;51.480;7.594;2022-09-17T13:25:07;21.30;99.90
25568;DHT22;13455;51.480;7.594;2022-09-17T13:27:34;20.80;99.90
25568;DHT22;13455;51.480;7.594;2022-09-17T13:30:04;19.30;99.90
25568;DHT22;13455;51.480;7.594;2022-09-17T13:37:35;19.00;99.90
25568;DHT22;13455;51.480;7.594;2022-09-17T13:45:10;18.70;99.90
25568;DHT22;13455;51.480;7.594;2022-09-17T13:47:38;18.60;99.90
25568;DHT22;13455;51.480;7.594;2022-09-17T13:58:01;19.00;99.90
25568;DHT22;13455;51.480;7.594;2022-09-17T14:01:06;19.20;99.90
25568;DHT22;13455;51.480;7.594;2022-09-17T14:23:56;18.00;99.90
25568;DHT22;13455;51.480;7.594;2022-09-17T14:30:14;18.30;99.90
25568;DHT22;13455;51.480;7.594;2022-09-17T14:32:22;18.50;99.90
25568;DHT22;13455;51.480;7.594;2022-09-17T14:47:16;17.70;99.90
25568;DHT22;13455;51.480;7.594;2022-09-17T14:49:43;17.70;99.90
25568;DHT22;13455;51.480;7.594;2022-09-17T14:52:28;16.90;99.90
25568;DHT22;13455;51.480;7.594;2022-09-17T14:55:17;17.90;99.90
25568;DHT22;13455;51.480;7.594;2022-09-17T15:00:23;17.80;99.90
25568;DHT22;13455;51.480;7.594;2022-09-17T15:02:51;17.70;99.90
25568;DHT22;13455;51.480;7.594;2022-09-17T15:05:33;17.20;99.90
25568;DHT22;13455;51.480;7.594;2022-09-17T15:08:14;16.00;99.90
25568;DHT22;13455;51.480;7.594;2022-09-17T15:16:01;15.40;99.90
25568;DHT22;13455;51.480;7.594;2022-09-17T15:23:27;15.10;99.90
25568;DHT22;13455;51.480;7.594;2022-09-17T15:25:56;15.10;99.90
25568;DHT22;13455;51.480;7.594;2022-09-17T15:28:34;15.10;99.90
25568;DHT22;13455;51.480;7.594;2022-09-17T15:31:14;15.00;99.90
25568;DHT22;13455;51.480;7.594;2022-09-17T15:38:44;15.00;99.90
25568;DHT22;13455;51.480;7.594;2022-09-17T15:41:29;15.00;99.90
25568;DHT22;13455;51.480;7.594;2022-09-17T15:44:14;14.80;99.90
25568;DHT22;13455;51.480;7.594;2022-09-17T15:46:41;14.80;99.90
25568;DHT22;13455;51.480;7.594;2022-09-17T15:51:52;17.60;99.90
25568;DHT22;13455;51.480;7.594;2022-09-17T15:54:29;17.50;99.90
25568;DHT22;13455;51.480;7.594;2022-09-17T15:59:26;16.70;99.90
25568;DHT22;13455;51.480;7.594;2022-09-17T16:01:54;17.30;99.90
25568;DHT22;13455;51.480;7.594;2022-09-17T16:04:30;17.30;99.90
25568;DHT22;13455;51.480;7.594;2022-09-17T16:06:59;18.10;99.90
25568;DHT22;13455;51.480;7.594;2022-09-17T16:09:37;19.30;99.90
25568;DHT22;13455;51.480;7.594;2022-09-17T16:26:41;15.60;99.90
25568;DHT22;13455;51.480;7.594;2022-09-17T16:31:36;15.20;99.90
25568;DHT22;13455;51.480;7.594;2022-09-17T16:34:01;15.40;99.90
25568;DHT22;13455;51.480;7.594;2022-09-17T16:36:27;14.70;99.90
25568;DHT22;13455;51.480;7.594;2022-09-17T16:38:55;14.60;99.90
25568;DHT22;13455;51.480;7.594;2022-09-17T16:43:47;14.20;99.90
25568;DHT22;13455;51.480;7.594;2022-09-17T16:46:13;14.20;99.90
25568;DHT22;13455;51.480;7.594;2022-09-17T16:48:38;14.10;99.90
25568;DHT22;13455;51.480;7.594;2022-09-17T16:51:07;14.00;99.90
25568;DHT22;13455;51.480;7.594;2022-09-17T16:53:33;14.00;99.90
25568;DHT22;13455;51.480;7.594;2022-09-17T16:55:59;13.80;99.90
25568;DHT22;13455;51.480;7.594;2022-09-17T16:58:25;14.30;99.90
25568;DHT22;13455;51.480;7.594;2022-09-17T17:00:54;13.70;99.90
25568;DHT22;13455;51.480;7.594;2022-09-17T17:03:19;13.60;99.90
25568;DHT22;13455;51.480;7.594;2022-09-17T17:05:45;13.60;99.90
25568;DHT22;13455;51.480;7.594;2022-09-17T17:08:11;13.50;99.90
25568;DHT22;13455;51.480;7.594;2022-09-17T17:10:39;13.40;99.90
25568;DHT22;13455;51.480;7.594;2022-09-17T17:15:31;13.30;99.90
25568;DHT22;13455;51.480;7.594;2022-09-17T17:17:57;13.30;99.90
25568;DHT22;13455;51.480;7.594;2022-09-17T17:20:22;13.20;99.90
25568;DHT22;13455;51.480;7.594;2022-09-17T17:25:17;13.20;99.90
25568;DHT22;13455;51.480;7.594;2022-09-17T17:54:39;12.40;99.90
25568;DHT22;13455;51.480;7.594;2022-09-17T18:04:22;12.40;99.90
25568;DHT22;13455;51.480;7.594;2022-09-17T18:06:48;12.80;99.90
25568;DHT22;13455;51.480;7.594;2022-09-17T18:09:14;12.20;99.90
25568;DHT22;13455;51.480;7.594;2022-09-17T18:23:50;11.90;99.90
25568;DHT22;13455;51.480;7.594;2022-09-17T18:26:19;11.90;99.90
25568;DHT22;13455;51.480;7.594;2022-09-17T18:28:45;11.80;99.90
25568;DHT22;13455;51.480;7.594;2022-09-17T18:31:25;12.00;99.90
25568;DHT22;13455;51.480;7.594;2022-09-17T18:34:17;12.20;99.90
25568;DHT22;13455;51.480;7.594;2022-09-17T18:36:43;12.30;99.90
25568;DHT22;13455;51.480;7.594;2022-09-17T18:39:11;11.70;99.90
25568;DHT22;13455;51.480;7.594;2022-09-17T18:41:39;12.60;99.90
25568;DHT22;13455;51.480;7.594;2022-09-17T18:44:06;12.90;99.90
25568;DHT22;13455;51.480;7.594;2022-09-17T18:46:32;11.50;99.90
25568;DHT22;13455;51.480;7.594;2022-09-17T18:48:59;13.20;99.90
25568;DHT22;13455;51.480;7.594;2022-09-17T19:59:55;11.60;99.90
25568;DHT22;13455;51.480;7.594;2022-09-17T20:02:21;11.40;99.90
25568;DHT22;13455;51.480;7.594;2022-09-17T20:04:47;11.30;99.90
25568;DHT22;13455;51.480;7.594;2022-09-17T20:07:12;12.50;99.90
25568;DHT22;13455;51.480;7.594;2022-09-17T20:09:38;11.30;99.90
25568;DHT22;13455;51.480;7.594;2022-09-17T20:12:04;11.20;99.90
25568;DHT22;13455;51.480;7.594;2022-09-17T20:14:29;11.20;99.90
25568;DHT22;13455;51.480;7.594;2022-09-17T20:16:55;11.20;99.90
25568;DHT22;13455;51.480;7.594;2022-09-17T20:19:21;11.20;99.90
25568;DHT22;13455;51.480;7.594;2022-09-17T20:21:46;11.10;99.90
25568;DHT22;13455;51.480;7.594;2022-09-17T20:24:12;11.10;99.90
25568;DHT22;13455;51.480;7.594;2022-09-17T20:26:37;10.70;99.90
25568;DHT22;13455;51.480;7.594;2022-09-17T20:29:03;11.00;99.90
25568;DHT22;13455;51.480;7.594;2022-09-17T20:31:30;11.60;99.90
25568;DHT22;13455;51.480;7.594;2022-09-17T20:34:00;11.10;99.90
25568;DHT22;13455;51.480;7.594;2022-09-17T20:36:31;11.10;99.90
25568;DHT22;13455;51.480;7.594;2022-09-17T20:39:01;11.40;99.90
25568;DHT22;13455;51.480;7.594;2022-09-17T20:41:28;11.00;99.90
25568;DHT22;13455;51.480;7.594;2022-09-17T20:43:55;12.20;99.90
25568;DHT22;13455;51.480;7.594;2022-09-17T20:46:22;11.00;99.90
25568;DHT22;13455;51.480;7.594;2022-09-17T20:48:48;12.20;99.90
25568;DHT22;13455;51.480;7.594;2022-09-17T20:51:24;11.10;99.90
25568;DHT22;13455;51.480;7.594;2022-09-17T20:53:50;11.80;99.90
25568;DHT22;13455;51.480;7.594;2022-09-17T20:56:18;11.00;99.90
25568;DHT22;13455;51.480;7.594;2022-09-17T20:58:46;10.70;99.90
25568;DHT22;13455;51.480;7.594;2022-09-17T21:01:26;12.50;99.90
25568;DHT22;13455;51.480;7.594;2022-09-17T21:03:57;11.70;99.90
25568;DHT22;13455;51.480;7.594;2022-09-17T21:06:25;10.90;99.90
25568;DHT22;13455;51.480;7.594;2022-09-17T21:08:51;11.70;99.90
25568;DHT22;13455;51.480;7.594;2022-09-17T21:11:18;10.90;99.90
25568;DHT22;13455;51.480;7.594;2022-09-17T21:56:09;11.00;99.90
25568;DHT22;13455;51.480;7.594;2022-09-17T21:58:35;11.20;99.90
25568;DHT22;13455;51.480;7.594;2022-09-17T22:03:30;10.90;99.90
25568;DHT22;13455;51.480;7.594;2022-09-17T22:06:04;10.70;99.90
25568;DHT22;13455;51.480;7.594;2022-09-17T22:08:31;10.80;99.90
25568;DHT22;13455;51.480;7.594;2022-09-17T22:11:05;10.70;99.90
25568;DHT22;13455;51.480;7.594;2022-09-17T22:13:31;11.00;99.90
25568;DHT22;13455;51.480;7.594;2022-09-17T22:42:51;10.60;99.90
25568;DHT22;13455;51.480;7.594;2022-09-17T22:45:16;10.80;99.90
25568;DHT22;13455;51.480;7.594;2022-09-17T23:12:03;10.70;99.90
25568;DHT22;13455;51.480;7.594;2022-09-17T23:14:28;10.40;99.90
25568;DHT22;13455;51.480;7.594;2022-09-17T23:16:54;10.70;99.90
25568;DHT22;13455;51.480;7.594;2022-09-17T23:26:41;10.50;99.90
